Corvallis Municipal Airport Corvallis US
ICAO: KCVO
IATA: CVO
Category: Medium
Scheduled Services: No

Elevation: 250 ft
TransAlt. 18000 ft.

Airport Communications:
CASCADE APP/DEP:127.5
AWOS 3:135.775
CTAF/UNICOM:123

KCVO Zoom In..

Runways:

(A) RW 09 length 3545 ft width 75 ft
---- / hdg 94

(B) RW 17 length 5900 ft width 150 ft
ILS 111.90 / hdg 169

(C) RW 27 length 3545 ft width 75 ft
---- / hdg 274

(D) RW 35 length 5900 ft width 150 ft
---- / hdg 349

Location; KCVO
Day. 15 / Time. 21.56 Zulu
* Altimeter: 29.93
* Temperature: 34° c. 93.2°f.
* Wind from: 170° Speed 04 kn.
Dewpoint: 13° c.
Visibility: 10 Statute Miles.
Clouds: Clear (automated report).

KCVO 152156Z AUTO 17004KT 10SM CLR 34/13 A2993 RMK AO2 SLP135 T03440133


Wind From 170°
Speed 04 kn.

 
 
jpsmedia.com for Web Design worldairports.se 2018   terms of use